createdAt,value
2022-12-29T00:01:11.469Z,7.93
2022-12-29T00:03:39.785Z,8.63
2022-12-29T00:06:09.444Z,8.95
2022-12-29T00:08:43.423Z,10.25
2022-12-29T00:11:13.746Z,9.77
2022-12-29T00:14:14.272Z,9.23
2022-12-29T00:16:43.959Z,8.85
2022-12-29T00:19:33.083Z,8.80
2022-12-29T00:22:21.000Z,7.32
2022-12-29T00:25:17.740Z,7.97
2022-12-29T00:28:07.490Z,8.27
2022-12-29T00:30:56.693Z,8.98
2022-12-29T00:33:47.872Z,7.72
2022-12-29T00:36:20.291Z,9.50
2022-12-29T00:39:10.743Z,7.60
2022-12-29T00:41:56.523Z,8.05
2022-12-29T00:44:24.847Z,7.88
2022-12-29T00:46:53.035Z,7.65
2022-12-29T00:49:32.251Z,8.23
2022-12-29T00:52:02.791Z,7.13
2022-12-29T00:54:33.882Z,7.78
2022-12-29T00:57:02.842Z,8.20
2022-12-29T00:59:31.189Z,8.27
2022-12-29T01:01:59.548Z,7.53
2022-12-29T01:04:28.327Z,8.27
2022-12-29T01:06:56.428Z,8.55
2022-12-29T01:09:42.402Z,7.57
2022-12-29T01:12:12.497Z,8.35
2022-12-29T01:14:40.960Z,8.13
2022-12-29T01:17:09.259Z,8.32
2022-12-29T01:19:37.538Z,7.47
2022-12-29T01:22:05.647Z,7.82
2022-12-29T01:24:33.749Z,9.50
2022-12-29T01:27:02.347Z,7.75
2022-12-29T01:29:31.838Z,9.15
2022-12-29T01:32:00.073Z,8.50
2022-12-29T01:34:28.208Z,8.32
2022-12-29T01:36:56.482Z,7.68
2022-12-29T01:39:24.656Z,9.07
2022-12-29T01:41:52.837Z,9.82
2022-12-29T01:44:54.129Z,8.95
2022-12-29T01:47:35.271Z,7.38
2022-12-29T01:50:08.904Z,9.43
2022-12-29T01:52:40.880Z,7.85
2022-12-29T01:55:10.848Z,8.15
2022-12-29T01:57:42.821Z,8.57
2022-12-29T02:00:15.277Z,9.32
2022-12-29T02:02:47.419Z,8.57
2022-12-29T02:05:21.882Z,7.72
2022-12-29T02:07:52.299Z,9.48
2022-12-29T02:10:23.052Z,8.23
2022-12-29T02:12:51.369Z,8.32
2022-12-29T02:15:27.956Z,9.55
2022-12-29T02:18:13.629Z,7.65
2022-12-29T02:21:18.902Z,8.68
2022-12-29T02:24:13.172Z,8.35
2022-12-29T02:26:52.466Z,10.23
2022-12-29T02:29:43.824Z,7.70
2022-12-29T02:32:21.306Z,8.43
2022-12-29T02:34:59.462Z,9.48
2022-12-29T02:37:34.881Z,8.70
2022-12-29T02:40:10.604Z,9.60
2022-12-29T02:42:45.787Z,8.52
2022-12-29T02:45:21.343Z,8.10
2022-12-29T02:47:56.961Z,8.50
2022-12-29T02:50:28.991Z,8.77
2022-12-29T02:53:01.351Z,9.45
2022-12-29T02:55:28.485Z,8.55
2022-12-29T02:58:18.204Z,8.02
2022-12-29T03:01:03.762Z,8.43
2022-12-29T03:03:44.848Z,7.60
2022-12-29T03:06:31.448Z,8.35
2022-12-29T03:09:18.424Z,8.98
2022-12-29T03:12:12.280Z,9.60
2022-12-29T03:15:08.968Z,9.27
2022-12-29T03:17:45.052Z,10.73
2022-12-29T03:20:21.185Z,8.70
2022-12-29T03:22:51.530Z,8.82
2022-12-29T03:25:25.742Z,8.27
2022-12-29T03:27:58.935Z,9.93
2022-12-29T03:30:30.041Z,7.65
2022-12-29T03:33:02.124Z,8.88
2022-12-29T03:35:35.380Z,8.20
2022-12-29T03:40:37.255Z,7.05
2022-12-29T03:43:06.867Z,8.18
2022-12-29T03:45:35.625Z,8.68
2022-12-29T03:48:03.813Z,8.25
2022-12-29T03:50:33.321Z,9.68
2022-12-29T03:53:01.454Z,9.00
2022-12-29T03:55:29.663Z,8.73
2022-12-29T03:57:57.815Z,8.70
2022-12-29T04:00:25.880Z,8.10
2022-12-29T04:02:54.094Z,8.70
2022-12-29T04:05:22.596Z,11.40
2022-12-29T04:07:52.381Z,10.25
2022-12-29T04:10:20.959Z,9.45
2022-12-29T04:12:49.043Z,10.15
2022-12-29T04:15:17.429Z,9.32
2022-12-29T04:17:46.591Z,9.68
2022-12-29T04:20:32.244Z,8.93
2022-12-29T04:23:02.857Z,9.07
2022-12-29T04:25:32.272Z,9.50
2022-12-29T04:28:00.473Z,10.40
2022-12-29T04:30:28.682Z,10.63
2022-12-29T04:32:56.791Z,11.70
2022-12-29T04:35:24.849Z,9.48
2022-12-29T04:37:52.877Z,8.85
2022-12-29T04:40:22.553Z,8.23
2022-12-29T04:42:51.230Z,9.15
2022-12-29T04:45:19.391Z,10.55
2022-12-29T04:47:47.646Z,9.02
2022-12-29T04:50:18.666Z,10.05
2022-12-29T04:52:46.719Z,8.48
2022-12-29T04:55:14.827Z,8.18
2022-12-29T04:57:44.283Z,8.57
2022-12-29T05:00:13.829Z,9.18
2022-12-29T05:02:42.253Z,8.95
2022-12-29T05:05:10.793Z,8.80
2022-12-29T05:07:39.125Z,9.10
2022-12-29T05:10:08.818Z,8.90
2022-12-29T05:12:38.537Z,9.10
2022-12-29T05:15:10.384Z,8.10
2022-12-29T05:17:39.030Z,8.93
2022-12-29T05:20:08.829Z,8.98
2022-12-29T05:22:37.144Z,10.15
2022-12-29T05:25:05.739Z,9.38
2022-12-29T05:27:34.818Z,9.68
2022-12-29T05:30:03.444Z,11.65
2022-12-29T05:32:33.405Z,8.88
2022-12-29T05:35:01.422Z,10.40
2022-12-29T05:37:29.611Z,8.70
2022-12-29T05:39:57.720Z,8.55
2022-12-29T05:42:25.793Z,8.43
2022-12-29T05:44:54.976Z,9.23
2022-12-29T05:47:23.061Z,9.65
2022-12-29T05:49:52.659Z,8.35
2022-12-29T05:52:20.899Z,8.40
2022-12-29T05:54:48.935Z,9.68
2022-12-29T05:57:16.999Z,10.32
2022-12-29T05:59:45.359Z,9.50
2022-12-29T06:02:13.502Z,8.77
2022-12-29T06:04:42.244Z,8.82
2022-12-29T06:07:11.977Z,8.27
2022-12-29T06:09:40.125Z,8.00
2022-12-29T06:12:11.040Z,10.13
2022-12-29T06:14:39.146Z,11.13
2022-12-29T06:17:07.265Z,9.77
2022-12-29T06:19:35.394Z,9.15
2022-12-29T06:22:03.903Z,9.18
2022-12-29T06:24:33.327Z,11.13
2022-12-29T06:27:01.451Z,10.82
2022-12-29T06:29:29.661Z,9.70
2022-12-29T06:31:59.105Z,9.57
2022-12-29T06:34:27.352Z,9.40
2022-12-29T06:36:55.465Z,10.05
2022-12-29T06:39:23.695Z,9.93
2022-12-29T06:41:55.588Z,10.68
2022-12-29T06:44:23.700Z,9.75
2022-12-29T06:46:52.337Z,9.75
2022-12-29T06:49:20.557Z,10.95
2022-12-29T06:51:48.897Z,10.57
2022-12-29T06:54:16.944Z,9.63
2022-12-29T06:56:46.017Z,9.35
2022-12-29T06:59:15.576Z,11.25
2022-12-29T07:01:43.852Z,10.07
2022-12-29T07:04:12.640Z,10.93
2022-12-29T07:06:41.679Z,10.07
2022-12-29T07:09:10.188Z,11.35
2022-12-29T07:11:38.384Z,10.75
2022-12-29T07:14:06.809Z,9.88
2022-12-29T07:16:36.313Z,9.93
2022-12-29T07:19:04.531Z,10.77
2022-12-29T07:21:32.833Z,10.95
2022-12-29T07:24:01.043Z,10.60
2022-12-29T07:26:35.906Z,9.85
2022-12-29T07:29:04.796Z,10.25
2022-12-29T07:31:33.321Z,11.20
2022-12-29T07:34:03.020Z,10.38
2022-12-29T07:36:34.602Z,10.52
2022-12-29T07:39:03.172Z,10.25
2022-12-29T07:41:31.845Z,10.98
2022-12-29T07:44:00.016Z,10.45
2022-12-29T07:46:54.266Z,10.93
2022-12-29T07:49:17.429Z,10.63
2022-12-29T07:51:45.943Z,11.02
2022-12-29T07:54:14.386Z,11.20
2022-12-29T07:56:42.506Z,10.75
2022-12-29T07:59:11.165Z,9.48
2022-12-29T08:01:39.344Z,10.32
2022-12-29T08:04:07.796Z,10.18
2022-12-29T08:06:38.812Z,10.68
2022-12-29T08:09:14.737Z,10.80
2022-12-29T08:11:46.574Z,9.60
2022-12-29T08:14:15.819Z,10.15
2022-12-29T08:16:43.918Z,9.68
2022-12-29T08:19:13.052Z,10.52
2022-12-29T08:21:42.793Z,10.15
2022-12-29T08:24:11.556Z,10.30
2022-12-29T08:26:39.673Z,12.02
2022-12-29T08:29:07.864Z,11.48
2022-12-29T08:31:36.008Z,13.27
2022-12-29T08:34:05.007Z,10.45
2022-12-29T08:36:33.259Z,11.30
2022-12-29T08:39:03.037Z,12.23
2022-12-29T08:41:31.166Z,11.77
2022-12-29T08:43:59.210Z,12.85
2022-12-29T08:46:27.318Z,12.85
2022-12-29T08:48:55.888Z,12.45
2022-12-29T08:51:25.180Z,12.25
2022-12-29T08:53:54.079Z,11.38
2022-12-29T08:56:24.689Z,11.82
2022-12-29T08:58:54.125Z,11.55
2022-12-29T09:01:22.372Z,11.95
2022-12-29T09:06:40.660Z,13.98
2022-12-29T09:09:09.118Z,11.75
2022-12-29T09:11:38.815Z,12.82
2022-12-29T09:14:08.760Z,12.13
2022-12-29T09:16:37.988Z,12.52
2022-12-29T09:19:06.608Z,12.60
2022-12-29T09:21:35.246Z,11.10
2022-12-29T09:24:03.711Z,13.10
2022-12-29T09:26:31.798Z,12.02
2022-12-29T09:29:01.267Z,12.10
2022-12-29T09:31:29.465Z,11.90
2022-12-29T09:33:57.574Z,12.30
2022-12-29T09:36:25.703Z,14.38
2022-12-29T09:38:55.212Z,20.67
2022-12-29T09:41:28.524Z,20.02
2022-12-29T09:44:08.856Z,19.80
2022-12-29T09:46:41.304Z,17.67
2022-12-29T09:49:18.469Z,21.63
2022-12-29T09:51:51.553Z,18.50
2022-12-29T09:54:42.340Z,15.57
2022-12-29T09:57:19.987Z,14.80
2022-12-29T09:59:52.026Z,17.80
2022-12-29T10:02:33.507Z,20.80
2022-12-29T10:05:02.105Z,19.67
2022-12-29T10:07:40.175Z,14.55
2022-12-29T10:10:37.418Z,14.80
2022-12-29T10:13:23.871Z,13.88
2022-12-29T10:16:04.657Z,14.00
2022-12-29T10:18:53.671Z,11.95
2022-12-29T10:21:33.628Z,19.75
2022-12-29T10:24:04.201Z,16.17
2022-12-29T10:26:38.131Z,16.88
2022-12-29T10:29:07.760Z,15.40
2022-12-29T10:31:41.480Z,14.27
2022-12-29T10:34:21.020Z,14.95
2022-12-29T10:36:51.513Z,14.20
2022-12-29T10:39:25.527Z,14.20
2022-12-29T10:42:01.286Z,13.90
2022-12-29T10:44:33.071Z,14.50
2022-12-29T10:47:07.011Z,16.30
2022-12-29T10:49:41.375Z,14.93
2022-12-29T10:52:11.671Z,15.90
2022-12-29T10:54:46.378Z,14.40
2022-12-29T10:57:25.867Z,15.10
2022-12-29T10:59:54.116Z,13.63
2022-12-29T11:02:49.662Z,12.98
2022-12-29T11:05:24.900Z,14.07
2022-12-29T11:07:57.928Z,13.05
2022-12-29T11:10:32.957Z,14.18
2022-12-29T11:13:03.059Z,13.50
2022-12-29T11:15:41.218Z,13.25
2022-12-29T11:18:20.502Z,13.80
2022-12-29T11:20:49.913Z,14.00
2022-12-29T11:23:28.413Z,12.00
2022-12-29T11:26:18.302Z,12.93
2022-12-29T11:28:48.424Z,14.80
2022-12-29T11:31:21.372Z,12.82
2022-12-29T11:33:50.911Z,13.85
2022-12-29T11:36:22.849Z,13.60
2022-12-29T11:38:53.053Z,14.25
2022-12-29T11:41:24.942Z,13.10
2022-12-29T11:43:55.321Z,13.95
2022-12-29T11:46:27.918Z,11.95
2022-12-29T11:49:00.667Z,13.55
2022-12-29T11:51:31.358Z,13.75
2022-12-29T11:54:01.605Z,12.57
2022-12-29T11:56:41.327Z,11.98
2022-12-29T11:59:40.009Z,13.82
2022-12-29T12:02:37.247Z,12.95
2022-12-29T12:05:36.776Z,14.10
2022-12-29T12:08:16.146Z,11.77
2022-12-29T12:10:51.118Z,13.05
2022-12-29T12:13:27.868Z,12.65
2022-12-29T12:16:01.661Z,12.98
2022-12-29T12:18:48.681Z,12.85
2022-12-29T12:21:26.373Z,13.05
2022-12-29T12:24:22.364Z,12.90
2022-12-29T12:27:00.903Z,12.15
2022-12-29T12:29:37.767Z,13.15
2022-12-29T12:32:14.357Z,13.43
2022-12-29T12:34:45.189Z,12.25
2022-12-29T12:37:32.742Z,14.23
2022-12-29T12:40:25.550Z,12.30
2022-12-29T12:43:10.012Z,12.38
2022-12-29T12:45:51.190Z,13.52
2022-12-29T12:48:40.761Z,12.65
2022-12-29T12:51:21.837Z,12.50
2022-12-29T12:54:12.936Z,12.35
2022-12-29T12:56:58.031Z,12.32
2022-12-29T12:59:38.087Z,13.45
2022-12-29T13:02:23.127Z,13.50
2022-12-29T13:05:25.984Z,12.70
2022-12-29T13:08:07.170Z,10.80
2022-12-29T13:10:48.493Z,12.02
2022-12-29T13:13:38.896Z,11.95
2022-12-29T13:16:16.605Z,12.10
2022-12-29T13:18:54.952Z,11.85
2022-12-29T13:21:36.156Z,12.55
2022-12-29T13:24:14.277Z,12.63
2022-12-29T13:26:48.687Z,12.70
2022-12-29T13:29:22.896Z,12.52
2022-12-29T13:31:57.815Z,10.90
2022-12-29T13:34:34.259Z,12.15
2022-12-29T13:37:07.833Z,12.25
2022-12-29T13:39:39.988Z,12.77
2022-12-29T13:42:11.338Z,11.32
2022-12-29T13:44:45.266Z,11.52
2022-12-29T13:47:22.782Z,12.07
2022-12-29T13:49:52.876Z,10.63
2022-12-29T13:52:30.072Z,12.02
2022-12-29T13:55:04.344Z,10.93
2022-12-29T13:57:43.551Z,13.23
2022-12-29T14:00:17.244Z,10.60
2022-12-29T14:03:06.651Z,11.27
2022-12-29T14:05:35.204Z,11.68
2022-12-29T14:08:05.055Z,13.05
2022-12-29T14:10:37.615Z,10.55
2022-12-29T14:13:13.170Z,12.32
2022-12-29T14:15:43.398Z,11.45
2022-12-29T14:18:18.770Z,12.20
2022-12-29T14:20:57.998Z,11.00
2022-12-29T14:23:40.831Z,13.30
2022-12-29T14:26:18.515Z,12.40
2022-12-29T14:28:49.378Z,12.48
2022-12-29T14:31:42.136Z,10.30
2022-12-29T14:34:41.413Z,12.57
2022-12-29T14:37:27.252Z,12.13
2022-12-29T14:40:07.756Z,11.68
2022-12-29T14:42:36.379Z,13.02
2022-12-29T14:45:11.106Z,12.27
2022-12-29T14:47:42.427Z,11.88
2022-12-29T14:50:17.319Z,11.38
2022-12-29T14:52:50.041Z,10.98
2022-12-29T14:55:50.713Z,12.63
2022-12-29T14:58:22.951Z,11.23
2022-12-29T15:00:52.943Z,13.13
2022-12-29T15:03:25.285Z,10.98
2022-12-29T15:05:56.732Z,13.18
2022-12-29T15:08:29.023Z,13.82
2022-12-29T15:11:01.653Z,12.70
2022-12-29T15:13:36.967Z,11.68
2022-12-29T15:16:07.677Z,12.50
2022-12-29T15:18:35.893Z,13.57
2022-12-29T15:21:08.578Z,11.40
2022-12-29T15:23:39.052Z,12.07
2022-12-29T15:26:09.710Z,11.57
2022-12-29T15:28:43.902Z,13.38
2022-12-29T15:31:17.513Z,13.57
2022-12-29T15:33:48.946Z,11.93
2022-12-29T15:36:21.807Z,13.13
2022-12-29T15:38:50.657Z,14.52
2022-12-29T15:41:31.731Z,13.57
2022-12-29T15:44:17.979Z,12.40
2022-12-29T15:46:47.494Z,12.73
2022-12-29T15:49:17.365Z,14.77
2022-12-29T15:51:46.578Z,13.30
2022-12-29T15:54:18.695Z,14.38
2022-12-29T15:56:47.422Z,13.63
2022-12-29T15:59:26.338Z,13.02
2022-12-29T16:01:56.906Z,14.95
2022-12-29T16:04:26.061Z,14.73
2022-12-29T16:06:59.197Z,16.00
2022-12-29T16:09:35.908Z,14.07
2022-12-29T16:12:07.554Z,14.73
2022-12-29T16:14:42.466Z,14.60
2022-12-29T16:17:20.225Z,15.68
2022-12-29T16:19:52.253Z,13.30
2022-12-29T16:22:29.217Z,14.43
2022-12-29T16:25:04.783Z,14.20
2022-12-29T16:27:42.108Z,15.00
2022-12-29T16:30:24.322Z,14.50
2022-12-29T16:32:59.322Z,15.32
2022-12-29T16:35:28.871Z,15.70
2022-12-29T16:38:16.446Z,13.80
2022-12-29T16:40:55.170Z,15.27
2022-12-29T16:43:25.592Z,14.55
2022-12-29T16:46:23.201Z,17.05
2022-12-29T16:48:56.044Z,16.45
2022-12-29T16:51:31.520Z,16.73
2022-12-29T16:54:01.198Z,16.63
2022-12-29T16:56:32.512Z,15.40
2022-12-29T16:59:05.737Z,14.13
2022-12-29T17:01:37.117Z,15.13
2022-12-29T17:04:11.996Z,15.48
2022-12-29T17:06:40.476Z,15.20
2022-12-29T17:09:19.940Z,14.93
2022-12-29T17:12:00.331Z,15.80
2022-12-29T17:14:42.069Z,14.52
2022-12-29T17:17:22.962Z,15.02
2022-12-29T17:19:55.082Z,16.00
2022-12-29T17:22:26.674Z,14.35
2022-12-29T17:24:55.627Z,14.57
2022-12-29T17:27:30.591Z,16.00
2022-12-29T17:30:02.178Z,14.52
2022-12-29T17:32:30.945Z,14.93
2022-12-29T17:35:00.388Z,14.50
2022-12-29T17:37:35.575Z,15.50
2022-12-29T17:40:05.266Z,15.95
2022-12-29T17:42:34.829Z,15.88
2022-12-29T17:45:03.490Z,15.55
2022-12-29T17:47:31.616Z,15.05
2022-12-29T17:50:01.441Z,15.38
2022-12-29T17:52:29.762Z,14.15
2022-12-29T17:54:57.829Z,16.27
2022-12-29T17:57:25.962Z,15.20
2022-12-29T17:59:54.155Z,14.50
2022-12-29T18:02:29.346Z,16.17
2022-12-29T18:04:58.958Z,13.52
2022-12-29T18:07:35.691Z,13.38
2022-12-29T18:10:05.265Z,15.25
2022-12-29T18:12:39.682Z,15.30
2022-12-29T18:15:17.651Z,13.55
2022-12-29T18:17:45.987Z,15.77
2022-12-29T18:20:15.470Z,14.77
2022-12-29T18:22:45.412Z,16.25
2022-12-29T18:25:26.524Z,14.95
2022-12-29T18:27:58.716Z,14.45
2022-12-29T18:30:26.959Z,15.35
2022-12-29T18:32:55.283Z,14.63
2022-12-29T18:35:27.978Z,16.02
2022-12-29T18:37:57.629Z,14.25
2022-12-29T18:40:25.813Z,15.23
2022-12-29T18:42:53.861Z,14.13
2022-12-29T18:45:24.247Z,15.25
2022-12-29T18:47:52.504Z,14.57
2022-12-29T18:50:20.904Z,14.73
2022-12-29T18:52:49.185Z,14.15
2022-12-29T18:55:20.991Z,14.30
2022-12-29T18:57:49.582Z,14.63
2022-12-29T19:00:19.773Z,13.98
2022-12-29T19:02:48.948Z,13.27
2022-12-29T19:05:23.599Z,15.07
2022-12-29T19:07:52.689Z,15.13
2022-12-29T19:10:24.087Z,13.40
2022-12-29T19:12:53.969Z,15.45
2022-12-29T19:15:25.133Z,14.65
2022-12-29T19:18:16.598Z,14.13
2022-12-29T19:20:45.136Z,13.38
2022-12-29T19:23:15.838Z,14.10
2022-12-29T19:25:47.154Z,14.02
2022-12-29T19:28:19.449Z,13.63
2022-12-29T19:30:52.176Z,15.57
2022-12-29T19:33:22.005Z,14.73
2022-12-29T19:35:50.591Z,14.40
2022-12-29T19:38:19.853Z,13.80
2022-12-29T19:40:51.430Z,15.77
2022-12-29T19:43:20.119Z,14.57
2022-12-29T19:45:48.381Z,14.63
2022-12-29T19:48:18.940Z,15.32
2022-12-29T19:50:47.681Z,14.55
2022-12-29T19:53:16.932Z,14.40
2022-12-29T19:55:45.500Z,14.82
2022-12-29T19:58:16.215Z,14.82
2022-12-29T20:00:45.314Z,12.95
2022-12-29T20:03:13.785Z,15.35
2022-12-29T20:05:42.641Z,14.07
2022-12-29T20:08:10.859Z,13.45
2022-12-29T20:10:39.510Z,14.85
2022-12-29T20:13:07.701Z,14.18
2022-12-29T20:15:37.380Z,13.65
2022-12-29T20:18:13.875Z,13.45
2022-12-29T20:20:42.748Z,14.73
2022-12-29T20:23:11.445Z,14.20
2022-12-29T20:25:45.359Z,14.02
2022-12-29T20:28:17.009Z,14.27
2022-12-29T20:30:46.757Z,13.98
2022-12-29T20:33:15.201Z,14.00
2022-12-29T20:35:43.427Z,14.20
2022-12-29T20:38:11.536Z,13.73
2022-12-29T20:40:46.251Z,13.52
2022-12-29T20:43:17.218Z,13.55
2022-12-29T20:45:49.889Z,12.88
2022-12-29T20:48:18.178Z,14.32
2022-12-29T20:50:46.416Z,14.15
2022-12-29T20:53:14.864Z,15.10
2022-12-29T20:55:42.992Z,15.35
2022-12-29T20:58:23.504Z,13.13
2022-12-29T21:00:53.351Z,13.55
2022-12-29T21:03:21.627Z,13.13
2022-12-29T21:05:49.830Z,13.07
2022-12-29T21:08:17.940Z,12.77
2022-12-29T21:10:47.499Z,13.68
2022-12-29T21:13:16.554Z,13.30
2022-12-29T21:15:45.549Z,13.15
2022-12-29T21:18:15.431Z,13.85
2022-12-29T21:20:43.613Z,12.20
2022-12-29T21:23:13.127Z,13.65
2022-12-29T21:25:44.994Z,13.43
2022-12-29T21:28:13.198Z,13.60
2022-12-29T21:30:42.064Z,13.25
2022-12-29T21:33:10.359Z,12.93
2022-12-29T21:35:40.160Z,12.77
2022-12-29T21:38:09.174Z,13.52
2022-12-29T21:40:39.190Z,13.10
2022-12-29T21:43:08.309Z,13.82
2022-12-29T21:45:35.542Z,13.95
2022-12-29T21:48:24.989Z,13.75
2022-12-29T21:51:14.606Z,13.88
2022-12-29T21:53:45.159Z,15.02
2022-12-29T21:56:15.247Z,15.32
2022-12-29T21:59:03.730Z,14.95
2022-12-29T22:01:51.256Z,15.45
2022-12-29T22:04:39.227Z,14.50
2022-12-29T22:07:28.379Z,14.18
2022-12-29T22:10:14.455Z,15.52
2022-12-29T22:13:01.670Z,15.27
2022-12-29T22:15:32.273Z,14.07
2022-12-29T22:18:04.805Z,14.32
2022-12-29T22:20:34.897Z,16.13
2022-12-29T22:23:04.889Z,15.73
2022-12-29T22:25:33.005Z,14.23
2022-12-29T22:28:01.150Z,16.35
2022-12-29T22:30:29.659Z,16.65
2022-12-29T22:32:58.896Z,14.32
2022-12-29T22:35:27.016Z,15.65
2022-12-29T22:37:55.158Z,14.43
2022-12-29T22:40:24.693Z,14.85
2022-12-29T22:42:53.037Z,14.90
2022-12-29T22:45:21.203Z,16.70
2022-12-29T22:47:52.130Z,15.18
2022-12-29T22:50:20.309Z,14.23
2022-12-29T22:52:48.610Z,16.13
2022-12-29T22:55:16.853Z,15.07
2022-12-29T22:57:46.289Z,17.10
2022-12-29T23:00:15.173Z,14.75
2022-12-29T23:02:43.647Z,15.15
2022-12-29T23:05:11.918Z,15.80
2022-12-29T23:07:40.053Z,15.45
2022-12-29T23:10:09.127Z,16.30
2022-12-29T23:12:37.413Z,14.30
2022-12-29T23:15:08.188Z,13.88
2022-12-29T23:17:37.111Z,15.13
2022-12-29T23:20:06.913Z,14.75
2022-12-29T23:22:35.094Z,15.80
2022-12-29T23:25:03.224Z,17.00
2022-12-29T23:27:31.289Z,15.68
2022-12-29T23:29:59.595Z,14.98
2022-12-29T23:32:32.149Z,14.95
2022-12-29T23:35:01.559Z,14.30
2022-12-29T23:37:29.607Z,16.23
2022-12-29T23:39:57.874Z,15.57
2022-12-29T23:42:26.310Z,16.90
2022-12-29T23:44:54.366Z,16.15
2022-12-29T23:47:22.419Z,16.40
2022-12-29T23:49:51.917Z,14.13
2022-12-29T23:52:20.136Z,15.35
2022-12-29T23:54:50.277Z,15.30
2022-12-29T23:57:18.553Z,14.95
2022-12-29T23:59:46.720Z,16.50
